sensor_id;sensor_type;location;lat;lon;timestamp;pressure;altitude;pressure_sealevel;temperature;humidity
56414;BME280;42318;48.452;19.526;2023-03-14T00:07:14;97628.34;;;19.64;47.32
56414;BME280;42318;48.452;19.526;2023-03-14T00:14:45;97619.91;;;19.61;47.62
56414;BME280;42318;48.452;19.526;2023-03-14T00:22:16;97620.47;;;19.63;47.35
56414;BME280;42318;48.452;19.526;2023-03-14T00:29:46;97606.88;;;19.63;47.45
56414;BME280;42318;48.452;19.526;2023-03-14T00:37:17;97601.72;;;19.61;47.57
56414;BME280;42318;48.452;19.526;2023-03-14T00:44:48;97591.94;;;19.60;47.37
56414;BME280;42318;48.452;19.526;2023-03-14T00:52:19;97564.19;;;19.63;47.23
56414;BME280;42318;48.452;19.526;2023-03-14T00:59:50;97544.09;;;19.64;47.42
56414;BME280;42318;48.452;19.526;2023-03-14T01:07:22;97528.34;;;19.61;47.42
56414;BME280;42318;48.452;19.526;2023-03-14T01:14:52;97517.75;;;19.55;47.59
56414;BME280;42318;48.452;19.526;2023-03-14T01:22:23;97480.78;;;19.59;47.42
56414;BME280;42318;48.452;19.526;2023-03-14T01:29:54;97468.56;;;19.61;47.54
56414;BME280;42318;48.452;19.526;2023-03-14T01:37:25;97446.84;;;19.51;47.36
56414;BME280;42318;48.452;19.526;2023-03-14T01:44:58;97445.22;;;19.55;47.57
56414;BME280;42318;48.452;19.526;2023-03-14T01:52:48;97441.16;;;19.53;47.52
56414;BME280;42318;48.452;19.526;2023-03-14T02:00:24;97419.94;;;19.55;47.52
56414;BME280;42318;48.452;19.526;2023-03-14T02:07:57;97418.06;;;19.55;47.34
56414;BME280;42318;48.452;19.526;2023-03-14T02:15:29;97390.88;;;19.55;47.51
56414;BME280;42318;48.452;19.526;2023-03-14T02:23:01;97387.06;;;19.56;47.17
56414;BME280;42318;48.452;19.526;2023-03-14T02:30:33;97366.94;;;19.62;47.31
56414;BME280;42318;48.452;19.526;2023-03-14T02:38:17;97348.97;;;19.66;47.19
56414;BME280;42318;48.452;19.526;2023-03-14T02:45:51;97341.91;;;19.65;46.94
56414;BME280;42318;48.452;19.526;2023-03-14T02:53:26;97341.09;;;19.65;46.92
56414;BME280;42318;48.452;19.526;2023-03-14T03:00:57;97353.63;;;19.61;47.11
56414;BME280;42318;48.452;19.526;2023-03-14T03:08:29;97356.63;;;19.59;47.25
56414;BME280;42318;48.452;19.526;2023-03-14T03:16:00;97343.81;;;19.65;46.79
56414;BME280;42318;48.452;19.526;2023-03-14T03:23:31;97339.50;;;19.59;47.19
56414;BME280;42318;48.452;19.526;2023-03-14T03:31:11;97332.69;;;19.61;46.90
56414;BME280;42318;48.452;19.526;2023-03-14T03:38:42;97328.06;;;19.62;47.15
56414;BME280;42318;48.452;19.526;2023-03-14T03:46:13;97296.56;;;19.61;47.17
56414;BME280;42318;48.452;19.526;2023-03-14T03:53:44;97300.91;;;19.62;47.13
56414;BME280;42318;48.452;19.526;2023-03-14T04:01:15;97282.41;;;19.64;46.91
56414;BME280;42318;48.452;19.526;2023-03-14T04:08:45;97288.16;;;19.57;47.38
56414;BME280;42318;48.452;19.526;2023-03-14T04:16:19;97287.91;;;19.54;47.39
56414;BME280;42318;48.452;19.526;2023-03-14T04:23:50;97279.44;;;19.60;46.90
56414;BME280;42318;48.452;19.526;2023-03-14T04:31:21;97275.66;;;19.56;46.94
56414;BME280;42318;48.452;19.526;2023-03-14T04:38:52;97287.59;;;19.60;47.14
56414;BME280;42318;48.452;19.526;2023-03-14T04:46:23;97291.34;;;19.69;46.96
56414;BME280;42318;48.452;19.526;2023-03-14T04:53:54;97274.53;;;19.62;47.28
56414;BME280;42318;48.452;19.526;2023-03-14T05:01:25;97272.91;;;19.61;47.22
56414;BME280;42318;48.452;19.526;2023-03-14T05:08:56;97251.19;;;19.61;46.94
56414;BME280;42318;48.452;19.526;2023-03-14T05:16:26;97256.56;;;19.66;46.86
56414;BME280;42318;48.452;19.526;2023-03-14T05:23:57;97249.00;;;19.63;47.03
56414;BME280;42318;48.452;19.526;2023-03-14T05:31:28;97241.13;;;19.62;47.20
56414;BME280;42318;48.452;19.526;2023-03-14T05:38:59;97224.81;;;19.62;47.06
56414;BME280;42318;48.452;19.526;2023-03-14T05:46:29;97223.16;;;19.66;46.73
56414;BME280;42318;48.452;19.526;2023-03-14T05:54:03;97228.88;;;19.64;47.04
56414;BME280;42318;48.452;19.526;2023-03-14T06:01:34;97233.53;;;19.59;47.03
56414;BME280;42318;48.452;19.526;2023-03-14T06:09:05;97218.19;;;19.34;47.40
56414;BME280;42318;48.452;19.526;2023-03-14T06:16:36;97219.91;;;19.20;47.90
56414;BME280;42318;48.452;19.526;2023-03-14T06:24:06;97219.69;;;19.06;48.16
56414;BME280;42318;48.452;19.526;2023-03-14T06:31:37;97215.09;;;19.01;48.11
56414;BME280;42318;48.452;19.526;2023-03-14T06:39:08;97194.50;;;18.95;48.09
56414;BME280;42318;48.452;19.526;2023-03-14T06:46:39;97207.25;;;18.95;48.33
56414;BME280;42318;48.452;19.526;2023-03-14T06:54:10;97200.50;;;18.92;48.18
56414;BME280;42318;48.452;19.526;2023-03-14T07:01:40;97198.06;;;18.91;48.21
56414;BME280;42318;48.452;19.526;2023-03-14T07:09:11;97221.94;;;18.89;48.38
56414;BME280;42318;48.452;19.526;2023-03-14T07:16:42;97233.38;;;18.86;48.22
56414;BME280;42318;48.452;19.526;2023-03-14T07:24:13;97212.22;;;18.82;48.28
56414;BME280;42318;48.452;19.526;2023-03-14T07:31:44;97203.53;;;18.80;48.50
56414;BME280;42318;48.452;19.526;2023-03-14T07:39:15;97195.69;;;18.79;48.42
56414;BME280;42318;48.452;19.526;2023-03-14T07:46:46;97205.44;;;18.80;48.40
56414;BME280;42318;48.452;19.526;2023-03-14T07:54:16;97189.16;;;18.80;48.48
56414;BME280;42318;48.452;19.526;2023-03-14T08:01:47;97192.97;;;18.79;48.45
56414;BME280;42318;48.452;19.526;2023-03-14T08:09:18;97191.84;;;18.85;48.43
56414;BME280;42318;48.452;19.526;2023-03-14T08:16:50;97184.38;;;19.11;48.42
56414;BME280;42318;48.452;19.526;2023-03-14T08:24:21;97181.03;;;19.24;48.65
56414;BME280;42318;48.452;19.526;2023-03-14T08:31:52;97166.84;;;19.32;48.02
56414;BME280;42318;48.452;19.526;2023-03-14T08:39:22;97164.91;;;19.38;48.22
56414;BME280;42318;48.452;19.526;2023-03-14T08:46:53;97164.94;;;19.33;48.35
56414;BME280;42318;48.452;19.526;2023-03-14T08:54:24;97149.19;;;19.35;47.80
56414;BME280;42318;48.452;19.526;2023-03-14T09:01:55;97125.19;;;19.47;47.75
56414;BME280;42318;48.452;19.526;2023-03-14T09:09:26;97133.69;;;19.35;48.51
56414;BME280;42318;48.452;19.526;2023-03-14T09:17:00;97132.31;;;19.38;48.03
56414;BME280;42318;48.452;19.526;2023-03-14T09:24:31;97115.50;;;19.36;48.25
56414;BME280;42318;48.452;19.526;2023-03-14T09:32:02;97105.41;;;19.41;48.18
56414;BME280;42318;48.452;19.526;2023-03-14T09:39:33;97104.25;;;19.48;48.23
56414;BME280;42318;48.452;19.526;2023-03-14T09:47:06;97094.19;;;19.48;48.27
56414;BME280;42318;48.452;19.526;2023-03-14T10:02:34;97083.38;;;19.43;48.11
56414;BME280;42318;48.452;19.526;2023-03-14T10:10:21;97084.00;;;19.35;48.33
56414;BME280;42318;48.452;19.526;2023-03-14T10:17:53;97076.84;;;19.15;48.97
56414;BME280;42318;48.452;19.526;2023-03-14T10:25:30;97068.22;;;19.03;49.23
56414;BME280;42318;48.452;19.526;2023-03-14T10:33:09;97042.22;;;18.97;49.13
56414;BME280;42318;48.452;19.526;2023-03-14T10:40:46;97036.09;;;18.81;49.46
56414;BME280;42318;48.452;19.526;2023-03-14T10:48:39;97029.78;;;18.91;49.30
56414;BME280;42318;48.452;19.526;2023-03-14T10:56:20;97009.44;;;18.88;49.33
56414;BME280;42318;48.452;19.526;2023-03-14T11:11:49;96981.25;;;18.84;49.69
56414;BME280;42318;48.452;19.526;2023-03-14T11:19:47;96964.47;;;18.82;49.46
56414;BME280;42318;48.452;19.526;2023-03-14T11:27:29;96955.78;;;18.80;49.69
56414;BME280;42318;48.452;19.526;2023-03-14T11:35:08;96944.13;;;18.79;49.63
56414;BME280;42318;48.452;19.526;2023-03-14T11:42:47;96938.97;;;18.78;49.80
56414;BME280;42318;48.452;19.526;2023-03-14T11:50:27;96912.66;;;18.78;49.85
56414;BME280;42318;48.452;19.526;2023-03-14T11:58:09;96901.53;;;18.80;50.07
56414;BME280;42318;48.452;19.526;2023-03-14T12:13:37;96865.16;;;18.81;50.69
56414;BME280;42318;48.452;19.526;2023-03-14T12:21:12;96855.63;;;18.83;50.87
56414;BME280;42318;48.452;19.526;2023-03-14T12:52:02;96791.84;;;19.29;51.55
56414;BME280;42318;48.452;19.526;2023-03-14T12:59:35;96792.38;;;19.31;51.77
56414;BME280;42318;48.452;19.526;2023-03-14T13:07:12;96783.50;;;19.44;51.64
56414;BME280;42318;48.452;19.526;2023-03-14T13:14:46;96772.34;;;19.45;51.71
56414;BME280;42318;48.452;19.526;2023-03-14T13:22:27;96766.63;;;19.47;51.72
56414;BME280;42318;48.452;19.526;2023-03-14T13:30:14;96752.53;;;19.45;52.02
56414;BME280;42318;48.452;19.526;2023-03-14T13:37:46;96747.38;;;19.43;51.84
56414;BME280;42318;48.452;19.526;2023-03-14T13:45:17;96723.44;;;19.45;52.00
56414;BME280;42318;48.452;19.526;2023-03-14T13:52:55;96731.25;;;19.33;52.76
56414;BME280;42318;48.452;19.526;2023-03-14T14:00:27;96745.13;;;19.32;52.70
56414;BME280;42318;48.452;19.526;2023-03-14T14:07:58;96752.66;;;19.35;52.78
56414;BME280;42318;48.452;19.526;2023-03-14T14:15:31;96735.06;;;19.32;53.18
56414;BME280;42318;48.452;19.526;2023-03-14T14:23:15;96736.09;;;19.36;53.18
56414;BME280;42318;48.452;19.526;2023-03-14T14:31:21;96737.63;;;19.42;53.05
56414;BME280;42318;48.452;19.526;2023-03-14T14:39:16;96751.78;;;19.39;53.43
56414;BME280;42318;48.452;19.526;2023-03-14T14:46:48;96775.34;;;19.44;53.30
56414;BME280;42318;48.452;19.526;2023-03-14T14:54:21;96778.72;;;19.36;53.46
56414;BME280;42318;48.452;19.526;2023-03-14T15:02:03;96782.25;;;19.36;53.66
56414;BME280;42318;48.452;19.526;2023-03-14T15:09:35;96778.16;;;19.39;53.62
56414;BME280;42318;48.452;19.526;2023-03-14T15:17:10;96774.25;;;19.45;53.38
56414;BME280;42318;48.452;19.526;2023-03-14T15:24:41;96770.44;;;19.46;53.21
56414;BME280;42318;48.452;19.526;2023-03-14T15:32:14;96772.13;;;19.42;53.31
56414;BME280;42318;48.452;19.526;2023-03-14T15:39:45;96781.38;;;19.41;53.44
56414;BME280;42318;48.452;19.526;2023-03-14T15:47:16;96788.13;;;19.43;53.37
56414;BME280;42318;48.452;19.526;2023-03-14T15:54:47;96779.16;;;19.43;53.30
56414;BME280;42318;48.452;19.526;2023-03-14T16:02:17;96795.47;;;19.43;53.39
56414;BME280;42318;48.452;19.526;2023-03-14T16:09:48;96816.09;;;19.44;53.08
56414;BME280;42318;48.452;19.526;2023-03-14T16:17:19;96839.56;;;19.35;53.22
56414;BME280;42318;48.452;19.526;2023-03-14T16:24:50;96841.78;;;19.33;53.42
56414;BME280;42318;48.452;19.526;2023-03-14T16:32:21;96833.91;;;19.31;53.18
56414;BME280;42318;48.452;19.526;2023-03-14T16:39:52;96832.09;;;19.45;52.80
56414;BME280;42318;48.452;19.526;2023-03-14T16:47:23;96822.56;;;19.48;52.36
56414;BME280;42318;48.452;19.526;2023-03-14T16:54:54;96831.66;;;19.38;52.47
56414;BME280;42318;48.452;19.526;2023-03-14T17:02:25;96844.91;;;19.21;53.12
56414;BME280;42318;48.452;19.526;2023-03-14T17:09:56;96852.06;;;19.12;53.05
56414;BME280;42318;48.452;19.526;2023-03-14T17:17:26;96864.06;;;19.06;53.53
56414;BME280;42318;48.452;19.526;2023-03-14T17:24:57;96870.34;;;19.01;53.36
56414;BME280;42318;48.452;19.526;2023-03-14T17:32:30;96866.31;;;18.99;53.59
56414;BME280;42318;48.452;19.526;2023-03-14T17:40:01;96870.41;;;18.96;53.52
56414;BME280;42318;48.452;19.526;2023-03-14T17:47:33;96847.13;;;18.90;53.41
56414;BME280;42318;48.452;19.526;2023-03-14T17:55:06;96863.13;;;18.92;53.54
56414;BME280;42318;48.452;19.526;2023-03-14T18:02:36;96867.41;;;18.98;53.39
56414;BME280;42318;48.452;19.526;2023-03-14T18:10:09;96876.81;;;19.10;52.89
56414;BME280;42318;48.452;19.526;2023-03-14T18:17:41;96886.03;;;19.33;52.52
56414;BME280;42318;48.452;19.526;2023-03-14T18:25:12;96881.94;;;19.36;52.60
56414;BME280;42318;48.452;19.526;2023-03-14T18:32:43;96892.44;;;19.42;52.30
56414;BME280;42318;48.452;19.526;2023-03-14T18:40:14;96883.41;;;19.47;52.32
56414;BME280;42318;48.452;19.526;2023-03-14T18:47:46;96881.50;;;19.53;52.33
56414;BME280;42318;48.452;19.526;2023-03-14T18:55:17;96872.03;;;19.45;52.97
56414;BME280;42318;48.452;19.526;2023-03-14T19:02:48;96869.84;;;19.47;52.92
56414;BME280;42318;48.452;19.526;2023-03-14T19:10:20;96865.06;;;19.39;53.33
56414;BME280;42318;48.452;19.526;2023-03-14T19:17:50;96879.09;;;19.46;53.23
56414;BME280;42318;48.452;19.526;2023-03-14T19:25:21;96868.72;;;19.48;53.02
56414;BME280;42318;48.452;19.526;2023-03-14T19:32:52;96875.50;;;19.51;53.11
56414;BME280;42318;48.452;19.526;2023-03-14T19:40:23;96876.13;;;19.42;53.42
56414;BME280;42318;48.452;19.526;2023-03-14T19:47:54;96882.31;;;19.53;52.94
56414;BME280;42318;48.452;19.526;2023-03-14T19:55:25;96870.06;;;19.51;52.97
56414;BME280;42318;48.452;19.526;2023-03-14T20:02:56;96855.97;;;19.49;53.22
56414;BME280;42318;48.452;19.526;2023-03-14T20:10:27;96865.47;;;19.51;53.00
56414;BME280;42318;48.452;19.526;2023-03-14T20:17:58;96876.66;;;19.44;53.43
56414;BME280;42318;48.452;19.526;2023-03-14T20:25:29;96874.81;;;19.40;53.40
56414;BME280;42318;48.452;19.526;2023-03-14T20:32:59;96893.44;;;19.52;53.28
56414;BME280;42318;48.452;19.526;2023-03-14T20:40:33;96898.31;;;19.55;53.16
56414;BME280;42318;48.452;19.526;2023-03-14T20:48:04;96898.84;;;19.57;53.04
56414;BME280;42318;48.452;19.526;2023-03-14T20:55:35;96883.13;;;19.54;52.82
56414;BME280;42318;48.452;19.526;2023-03-14T21:03:06;96894.72;;;19.59;52.72
56414;BME280;42318;48.452;19.526;2023-03-14T21:10:37;96904.31;;;19.52;52.99
56414;BME280;42318;48.452;19.526;2023-03-14T21:18:08;96922.19;;;19.58;52.83
56414;BME280;42318;48.452;19.526;2023-03-14T21:25:39;96912.06;;;19.63;52.54
56414;BME280;42318;48.452;19.526;2023-03-14T21:33:10;96905.25;;;19.66;51.98
56414;BME280;42318;48.452;19.526;2023-03-14T21:40:42;96927.56;;;19.63;52.67
56414;BME280;42318;48.452;19.526;2023-03-14T21:48:20;96918.38;;;19.59;52.63
56414;BME280;42318;48.452;19.526;2023-03-14T21:55:54;96918.66;;;19.57;52.52
56414;BME280;42318;48.452;19.526;2023-03-14T22:03:25;96914.56;;;19.60;52.74
56414;BME280;42318;48.452;19.526;2023-03-14T22:10:56;96917.13;;;19.70;52.10
56414;BME280;42318;48.452;19.526;2023-03-14T22:18:26;96936.38;;;19.73;52.10
56414;BME280;42318;48.452;19.526;2023-03-14T22:25:57;96924.19;;;19.71;51.86
56414;BME280;42318;48.452;19.526;2023-03-14T22:33:28;96930.06;;;19.78;51.78
56414;BME280;42318;48.452;19.526;2023-03-14T22:41:00;96941.38;;;19.66;52.12
56414;BME280;42318;48.452;19.526;2023-03-14T22:48:34;96946.97;;;19.75;51.78
56414;BME280;42318;48.452;19.526;2023-03-14T22:56:06;96927.78;;;19.66;52.08
56414;BME280;42318;48.452;19.526;2023-03-14T23:03:37;96935.78;;;19.58;52.13
56414;BME280;42318;48.452;19.526;2023-03-14T23:11:08;96929.59;;;19.47;52.56
56414;BME280;42318;48.452;19.526;2023-03-14T23:18:40;96921.16;;;19.49;52.35
56414;BME280;42318;48.452;19.526;2023-03-14T23:26:13;96912.06;;;19.63;51.81
56414;BME280;42318;48.452;19.526;2023-03-14T23:33:44;96932.13;;;19.67;51.81
56414;BME280;42318;48.452;19.526;2023-03-14T23:41:15;96938.38;;;19.68;51.46
56414;BME280;42318;48.452;19.526;2023-03-14T23:48:46;96943.97;;;19.53;51.72
56414;BME280;42318;48.452;19.526;2023-03-14T23:56:17;96941.22;;;19.29;52.42
